createdAt,value
2022-08-01T00:00:50.366Z,242.47
2022-08-01T00:03:18.000Z,164.07
2022-08-01T00:05:46.339Z,166.90
2022-08-01T00:08:13.927Z,161.20
2022-08-01T00:10:41.854Z,169.57
2022-08-01T00:13:10.605Z,161.53
2022-08-01T00:15:38.419Z,167.13
2022-08-01T00:18:07.567Z,155.60
2022-08-01T00:20:35.150Z,148.97
2022-08-01T00:23:04.565Z,225.93
2022-08-01T00:25:34.082Z,173.53
2022-08-01T00:28:02.364Z,170.33
2022-08-01T00:30:32.468Z,168.63
2022-08-01T00:33:00.071Z,152.10
2022-08-01T00:35:29.004Z,166.27
2022-08-01T00:37:56.862Z,168.20
2022-08-01T00:40:24.622Z,154.67
2022-08-01T00:42:52.604Z,164.70
2022-08-01T00:45:20.339Z,160.43
2022-08-01T00:47:48.015Z,170.10
2022-08-01T00:50:22.930Z,155.70
2022-08-01T00:52:54.033Z,155.33
2022-08-01T00:55:22.148Z,157.40
2022-08-01T00:58:03.884Z,157.43
2022-08-01T01:00:34.831Z,149.43
2022-08-01T01:03:20.331Z,160.33
2022-08-01T01:05:56.680Z,164.70
2022-08-01T01:08:31.339Z,173.03
2022-08-01T01:11:03.459Z,157.13
2022-08-01T01:13:50.817Z,167.90
2022-08-01T01:16:20.921Z,187.70
2022-08-01T01:18:50.068Z,177.27
2022-08-01T01:21:37.538Z,159.83
2022-08-01T01:24:15.392Z,160.47
2022-08-01T01:26:49.921Z,187.87
2022-08-01T01:29:23.440Z,140.90
2022-08-01T01:31:54.083Z,229.50
2022-08-01T01:34:23.407Z,141.20
2022-08-01T01:36:53.760Z,164.07
2022-08-01T01:39:22.856Z,198.47
2022-08-01T01:41:51.160Z,166.80
2022-08-01T01:44:20.712Z,162.57
2022-08-01T01:46:49.549Z,233.67
2022-08-01T01:49:18.480Z,161.07
2022-08-01T01:51:53.278Z,178.50
2022-08-01T01:54:33.296Z,162.83
2022-08-01T01:57:01.800Z,167.40
2022-08-01T01:59:32.698Z,199.53
2022-08-01T02:02:06.126Z,181.03
2022-08-01T02:04:35.086Z,1546.93
2022-08-01T02:07:04.260Z,227.03
2022-08-01T02:09:32.844Z,1467.53
2022-08-01T02:12:08.782Z,1551.93
2022-08-01T02:14:40.891Z,168.77
2022-08-01T02:17:08.554Z,171.87
2022-08-01T02:19:38.010Z,183.03
2022-08-01T02:22:10.118Z,192.70
2022-08-01T02:24:41.622Z,1538.80
2022-08-01T02:27:11.883Z,1544.10
2022-08-01T02:29:43.887Z,1481.53
2022-08-01T02:32:15.039Z,1549.37
2022-08-01T02:34:43.622Z,1548.47
2022-08-01T02:37:12.325Z,1478.93
2022-08-01T02:39:40.443Z,199.83
2022-08-01T02:42:10.400Z,2266.67
2022-08-01T02:44:41.399Z,1498.37
2022-08-01T02:47:11.145Z,226.77
2022-08-01T02:49:42.038Z,182.40
2022-08-01T02:52:13.480Z,221.80
2022-08-01T02:54:42.498Z,517.43
2022-08-01T02:57:13.738Z,1492.17
2022-08-01T02:59:43.687Z,2152.67
2022-08-01T03:02:14.038Z,2266.67
2022-08-01T03:04:42.591Z,2102.53
2022-08-01T03:07:11.759Z,1452.50
2022-08-01T03:09:41.121Z,2266.67
2022-08-01T03:12:11.727Z,1464.73
2022-08-01T03:14:43.195Z,1453.50
2022-08-01T03:17:12.371Z,1445.47
2022-08-01T03:19:40.536Z,2266.67
2022-08-01T03:22:09.388Z,224.90
2022-08-01T03:24:38.237Z,1459.23
2022-08-01T03:27:06.632Z,2266.67
2022-08-01T03:29:34.990Z,1454.80
2022-08-01T03:32:04.383Z,220.00
2022-08-01T03:34:32.459Z,1539.20
2022-08-01T03:37:04.627Z,2266.67
2022-08-01T03:39:34.184Z,1500.63
2022-08-01T03:42:04.228Z,2266.67
2022-08-01T03:44:34.304Z,1556.17
2022-08-01T03:47:05.073Z,1550.47
2022-08-01T03:49:34.935Z,175.10
2022-08-01T03:52:05.680Z,172.47
2022-08-01T03:54:36.992Z,196.43
2022-08-01T03:57:05.065Z,169.20
2022-08-01T03:59:34.237Z,206.97
2022-08-01T04:02:01.974Z,182.50
2022-08-01T04:04:31.360Z,156.60
2022-08-01T04:07:04.935Z,167.43
2022-08-01T04:09:33.064Z,203.07
2022-08-01T04:12:01.061Z,173.23
2022-08-01T04:14:39.620Z,172.80
2022-08-01T04:17:07.176Z,195.93
2022-08-01T04:19:36.140Z,143.70
2022-08-01T04:22:04.851Z,174.77
2022-08-01T04:24:34.706Z,165.20
2022-08-01T04:27:02.862Z,154.27
2022-08-01T04:29:32.157Z,134.00
2022-08-01T04:32:01.419Z,159.53
2022-08-01T04:34:31.274Z,186.57
2022-08-01T04:37:01.318Z,149.20
2022-08-01T04:39:31.736Z,199.43
2022-08-01T04:42:00.115Z,162.77
2022-08-01T04:44:32.625Z,163.10
2022-08-01T04:47:01.867Z,148.43
2022-08-01T04:49:31.035Z,170.47
2022-08-01T04:52:01.886Z,180.10
2022-08-01T04:54:30.679Z,172.47
2022-08-01T04:57:00.707Z,160.77
2022-08-01T04:59:43.408Z,153.97
2022-08-01T05:02:12.392Z,146.07
2022-08-01T05:04:40.631Z,189.60
2022-08-01T05:07:09.984Z,172.40
2022-08-01T05:09:37.998Z,183.30
2022-08-01T05:12:07.493Z,151.80
2022-08-01T05:14:35.559Z,156.53
2022-08-01T05:17:04.915Z,179.67
2022-08-01T05:19:33.773Z,170.03
2022-08-01T05:22:02.409Z,173.73
2022-08-01T05:24:31.996Z,175.40
2022-08-01T05:27:00.551Z,148.83
2022-08-01T05:29:28.865Z,248.23
2022-08-01T05:31:56.458Z,169.63
2022-08-01T05:34:24.143Z,160.10
2022-08-01T05:36:55.383Z,156.90
2022-08-01T05:39:25.331Z,141.57
2022-08-01T05:41:54.252Z,176.07
2022-08-01T05:44:22.032Z,237.40
2022-08-01T05:46:49.668Z,163.93
2022-08-01T05:49:17.311Z,160.40
2022-08-01T05:51:45.017Z,188.37
2022-08-01T05:54:12.692Z,155.93
2022-08-01T05:56:40.256Z,198.57
2022-08-01T05:59:09.178Z,185.93
2022-08-01T06:01:36.837Z,172.87
2022-08-01T06:04:04.751Z,176.03
2022-08-01T06:06:32.312Z,165.17
2022-08-01T06:08:59.883Z,1453.37
2022-08-01T06:11:27.461Z,1464.63
2022-08-01T06:13:55.438Z,2266.67
2022-08-01T06:16:24.663Z,2266.67
2022-08-01T06:18:56.505Z,2266.67
2022-08-01T06:21:24.577Z,1465.43
2022-08-01T06:23:52.154Z,1487.93
2022-08-01T06:26:20.068Z,1494.03
2022-08-01T06:28:47.707Z,1431.63
2022-08-01T06:31:16.518Z,2210.47
2022-08-01T06:33:45.448Z,271.90
2022-08-01T06:36:13.066Z,1572.87
2022-08-01T06:38:40.692Z,1586.00
2022-08-01T06:41:08.276Z,1580.23
2022-08-01T06:43:35.878Z,1571.17
2022-08-01T06:46:03.469Z,1423.47
2022-08-01T06:48:31.064Z,2158.27
2022-08-01T06:51:13.959Z,2266.67
2022-08-01T06:53:41.659Z,286.57
2022-08-01T06:56:11.480Z,1474.73
2022-08-01T06:58:39.556Z,1443.00
2022-08-01T07:01:08.130Z,1406.20
2022-08-01T07:03:52.730Z,246.10
2022-08-01T07:06:24.599Z,1484.50
2022-08-01T07:08:52.385Z,2266.67
2022-08-01T07:11:20.346Z,241.27
2022-08-01T07:13:47.923Z,1550.10
2022-08-01T07:16:15.909Z,1421.10
2022-08-01T07:18:43.784Z,1482.07
2022-08-01T07:21:16.645Z,238.33
2022-08-01T07:24:00.562Z,1460.07
2022-08-01T07:26:28.575Z,2266.67
2022-08-01T07:28:56.254Z,1437.23
2022-08-01T07:31:23.939Z,1564.23
2022-08-01T07:33:51.699Z,1440.60
2022-08-01T07:36:19.483Z,1448.27
2022-08-01T07:38:47.515Z,219.37
2022-08-01T07:41:16.772Z,2266.67
2022-08-01T07:43:54.379Z,1443.63
2022-08-01T07:46:24.017Z,2266.67
2022-08-01T07:48:51.616Z,2266.67
2022-08-01T07:51:19.227Z,2266.67
2022-08-01T07:53:46.852Z,1442.70
2022-08-01T07:56:15.812Z,1454.60
2022-08-01T07:58:43.380Z,1583.20
2022-08-01T08:01:11.016Z,1439.70
2022-08-01T08:03:38.603Z,229.87
2022-08-01T08:06:06.619Z,1466.33
2022-08-01T08:08:35.521Z,1432.47
2022-08-01T08:11:03.393Z,2266.67
2022-08-01T08:13:32.386Z,1473.33
2022-08-01T08:16:00.667Z,1457.80
2022-08-01T08:18:28.367Z,1473.20
2022-08-01T08:20:55.962Z,1447.73
2022-08-01T08:23:43.538Z,2266.67
2022-08-01T08:26:11.691Z,459.67
2022-08-01T08:28:40.991Z,1587.50
2022-08-01T08:31:50.830Z,2266.67
2022-08-01T08:33:56.615Z,1484.93
2022-08-01T08:36:31.230Z,1479.60
2022-08-01T08:39:01.248Z,1459.97
2022-08-01T08:41:38.154Z,2266.67
2022-08-01T08:44:10.575Z,2266.67
2022-08-01T08:46:43.425Z,2266.67
2022-08-01T08:49:11.800Z,2266.67
2022-08-01T08:51:40.853Z,1455.90
2022-08-01T08:54:09.010Z,1459.43
2022-08-01T08:56:37.079Z,1561.17
2022-08-01T08:59:05.186Z,1590.90
2022-08-01T09:01:35.925Z,219.47
2022-08-01T09:04:04.080Z,1465.77
2022-08-01T09:06:32.142Z,1485.10
2022-08-01T09:09:00.405Z,1458.87
2022-08-01T09:11:28.030Z,2266.67
2022-08-01T09:14:07.779Z,1462.73
2022-08-01T09:16:38.563Z,1447.87
2022-08-01T09:19:16.420Z,1446.63
2022-08-01T09:22:01.555Z,2266.67
2022-08-01T09:24:30.923Z,1427.43
2022-08-01T09:26:59.234Z,1548.10
2022-08-01T09:29:37.377Z,2266.67
2022-08-01T09:32:13.907Z,2266.67
2022-08-01T09:34:44.022Z,2266.67
2022-08-01T09:37:15.104Z,1469.83
2022-08-01T09:39:44.191Z,1470.27
2022-08-01T09:42:28.748Z,242.97
2022-08-01T09:44:57.154Z,1456.33
2022-08-01T09:47:39.250Z,2266.67
2022-08-01T09:50:11.062Z,2266.67
2022-08-01T09:52:40.921Z,2266.67
2022-08-01T09:55:09.804Z,2266.67
2022-08-01T09:57:37.378Z,2266.67
2022-08-01T10:00:06.764Z,1452.13
2022-08-01T10:02:38.332Z,2266.67
2022-08-01T10:05:09.102Z,1457.57
2022-08-01T10:07:43.831Z,1455.00
2022-08-01T10:10:13.076Z,1481.60
2022-08-01T10:12:45.246Z,326.40
2022-08-01T10:15:14.292Z,1455.50
2022-08-01T10:17:51.241Z,2266.67
2022-08-01T10:20:30.474Z,295.47
2022-08-01T10:23:01.902Z,1513.87
2022-08-01T10:25:42.445Z,1423.83
2022-08-01T10:28:18.102Z,2266.67
2022-08-01T10:30:49.708Z,1486.40
2022-08-01T10:33:49.933Z,2266.67
2022-08-01T10:36:08.303Z,2266.67
2022-08-01T10:38:37.307Z,2266.67
2022-08-01T10:41:06.434Z,2266.67
2022-08-01T10:43:36.410Z,2266.67
2022-08-01T10:46:04.602Z,1466.30
2022-08-01T10:48:38.261Z,2266.67
2022-08-01T10:51:17.516Z,1431.63
2022-08-01T10:53:50.036Z,1419.07
2022-08-01T10:56:18.172Z,2266.67
2022-08-01T10:58:48.726Z,2266.67
2022-08-01T11:01:21.161Z,1392.33
2022-08-01T11:04:04.905Z,1448.83
2022-08-01T11:06:42.957Z,270.37
2022-08-01T11:09:24.686Z,1433.17
2022-08-01T11:12:08.882Z,2266.67
2022-08-01T11:15:14.918Z,2266.67
2022-08-01T11:17:48.331Z,1535.57
2022-08-01T11:20:19.037Z,1027.47
2022-08-01T11:23:29.709Z,2266.67
2022-08-01T11:26:29.209Z,1410.13
2022-08-01T11:29:21.195Z,2266.67
2022-08-01T11:31:50.485Z,1973.73
2022-08-01T11:34:18.207Z,1388.00
2022-08-01T11:37:03.263Z,2266.67
2022-08-01T11:39:34.349Z,1064.47
2022-08-01T11:42:20.658Z,2266.67
2022-08-01T11:44:52.129Z,1394.70
2022-08-01T11:47:21.447Z,2266.67
2022-08-01T11:49:56.111Z,2266.67
2022-08-01T11:52:30.147Z,2266.67
2022-08-01T11:54:59.618Z,1011.77
2022-08-01T11:57:33.959Z,2266.67
2022-08-01T12:00:08.790Z,2266.67
2022-08-01T12:02:36.854Z,2266.67
2022-08-01T12:05:08.387Z,1412.87
2022-08-01T12:07:38.259Z,325.37
2022-08-01T12:10:07.886Z,2266.67
2022-08-01T12:12:36.983Z,1566.13
2022-08-01T12:15:06.184Z,2266.67
2022-08-01T12:17:39.398Z,2266.67
2022-08-01T12:20:09.337Z,1025.97
2022-08-01T12:22:39.059Z,2266.67
2022-08-01T12:25:10.679Z,2266.67
2022-08-01T12:27:39.210Z,2266.67
2022-08-01T12:30:09.220Z,2266.67
2022-08-01T12:32:38.894Z,2266.67
2022-08-01T12:35:09.665Z,1387.33
2022-08-01T12:37:39.159Z,1439.60
2022-08-01T12:40:15.325Z,1498.23
2022-08-01T12:42:43.866Z,2266.67
2022-08-01T12:45:14.592Z,2266.67
2022-08-01T12:47:42.705Z,1037.30
2022-08-01T12:50:14.032Z,2266.67
2022-08-01T12:52:43.587Z,2266.67
2022-08-01T12:55:14.102Z,2266.67
2022-08-01T12:57:43.124Z,1048.47
2022-08-01T13:00:16.779Z,2266.67
2022-08-01T13:02:45.217Z,1016.90
2022-08-01T13:05:13.165Z,2266.67
2022-08-01T13:07:47.586Z,1029.80
2022-08-01T13:10:17.264Z,1416.27
2022-08-01T13:12:54.079Z,2266.67
2022-08-01T13:15:28.116Z,2266.67
2022-08-01T13:17:56.284Z,2266.67
2022-08-01T13:20:25.542Z,1008.97
2022-08-01T13:22:54.651Z,2266.67
2022-08-01T13:25:24.498Z,2266.67
2022-08-01T13:28:18.218Z,1417.60
2022-08-01T13:30:57.091Z,2266.67
2022-08-01T13:33:25.611Z,1450.63
2022-08-01T13:35:54.340Z,1402.00
2022-08-01T13:38:43.903Z,2266.67
2022-08-01T13:41:11.972Z,1001.73
2022-08-01T13:43:58.356Z,2266.67
2022-08-01T13:46:27.052Z,1001.97
2022-08-01T13:48:57.361Z,1019.83
2022-08-01T13:51:26.132Z,2266.67
2022-08-01T13:53:55.056Z,2266.67
2022-08-01T13:56:23.832Z,2266.67
2022-08-01T13:58:51.448Z,2266.67
2022-08-01T14:01:19.099Z,2266.67
2022-08-01T14:03:47.245Z,2266.67
2022-08-01T14:06:16.852Z,2266.67
2022-08-01T14:08:45.965Z,2266.67
2022-08-01T14:11:15.231Z,2266.67
2022-08-01T14:13:45.182Z,346.37
2022-08-01T14:16:14.596Z,2266.67
2022-08-01T14:18:44.292Z,1568.17
2022-08-01T14:21:12.176Z,2266.67
2022-08-01T14:23:39.947Z,2266.67
2022-08-01T14:26:12.130Z,2266.67
2022-08-01T14:28:41.515Z,2266.67
2022-08-01T14:31:09.327Z,2266.67
2022-08-01T14:33:37.290Z,1415.80
2022-08-01T14:36:30.848Z,2266.67
2022-08-01T14:38:53.074Z,2266.67
2022-08-01T14:41:20.658Z,1409.70
2022-08-01T14:43:49.617Z,2266.67
2022-08-01T14:46:17.558Z,2266.67
2022-08-01T14:48:45.162Z,280.20
2022-08-01T14:51:12.785Z,2266.67
2022-08-01T14:53:41.563Z,2266.67
2022-08-01T14:56:14.874Z,2266.67
2022-08-01T14:58:42.505Z,1383.00
2022-08-01T15:01:11.528Z,2266.67
2022-08-01T15:03:39.246Z,242.50
2022-08-01T15:06:10.455Z,1388.83
2022-08-01T15:08:38.080Z,2266.67
2022-08-01T15:11:05.686Z,2266.67
2022-08-01T15:13:33.461Z,2266.67
2022-08-01T15:16:01.401Z,274.20
2022-08-01T15:18:30.563Z,1417.90
2022-08-01T15:21:01.926Z,1428.43
2022-08-01T15:23:29.611Z,1442.17
2022-08-01T15:25:57.220Z,1432.20
2022-08-01T15:28:25.581Z,2266.67
2022-08-01T15:30:53.184Z,2266.67
2022-08-01T15:33:22.488Z,2266.67
2022-08-01T15:35:52.860Z,1575.73
2022-08-01T15:38:22.371Z,1433.13
2022-08-01T15:40:49.988Z,2266.67
2022-08-01T15:43:17.607Z,2266.67
2022-08-01T15:45:48.179Z,2266.67
2022-08-01T15:48:16.600Z,2266.67
2022-08-01T15:50:44.273Z,1429.87
2022-08-01T15:53:13.268Z,2266.67
2022-08-01T15:55:40.888Z,2266.67
2022-08-01T15:58:11.644Z,2266.67
2022-08-01T16:00:40.197Z,2266.67
2022-08-01T16:03:08.460Z,2266.67
2022-08-01T16:05:42.923Z,2266.67
2022-08-01T16:08:13.232Z,2266.67
2022-08-01T16:10:41.342Z,1436.93
2022-08-01T16:13:09.362Z,1473.60
2022-08-01T16:15:38.182Z,2266.67
2022-08-01T16:18:06.418Z,2266.67
2022-08-01T16:20:34.125Z,1455.30
2022-08-01T16:23:01.782Z,2266.67
2022-08-01T16:25:30.757Z,956.93
2022-08-01T16:27:58.371Z,535.13
2022-08-01T16:30:26.163Z,941.30
2022-08-01T16:32:56.661Z,1451.80
2022-08-01T16:35:36.395Z,2266.67
2022-08-01T16:38:04.723Z,2266.67
2022-08-01T16:40:34.895Z,389.73
2022-08-01T16:43:14.383Z,2266.67
2022-08-01T16:45:42.876Z,2266.67
2022-08-01T16:48:12.059Z,2266.67
2022-08-01T16:50:40.421Z,2074.67
2022-08-01T16:53:08.203Z,1600.90
2022-08-01T16:55:49.457Z,1456.57
2022-08-01T16:58:18.860Z,2266.67
2022-08-01T17:00:56.752Z,2266.67
2022-08-01T17:03:46.891Z,2266.67
2022-08-01T17:06:12.798Z,838.23
2022-08-01T17:08:46.137Z,1353.03
2022-08-01T17:11:16.219Z,1171.03
2022-08-01T17:13:44.021Z,1088.20
2022-08-01T17:16:12.192Z,2266.67
2022-08-01T17:18:39.864Z,1129.60
2022-08-01T17:21:07.739Z,2266.67
2022-08-01T17:23:35.780Z,2266.67
2022-08-01T17:26:03.396Z,2266.67
2022-08-01T17:28:32.633Z,2266.67
2022-08-01T17:31:00.275Z,2266.67
2022-08-01T17:33:45.514Z,2266.67
2022-08-01T17:36:15.227Z,2266.67
2022-08-01T17:38:42.915Z,1058.70
2022-08-01T17:41:10.545Z,839.23
2022-08-01T17:43:39.540Z,940.30
2022-08-01T17:46:07.147Z,2266.67
2022-08-01T17:48:34.748Z,841.83
2022-08-01T17:51:02.418Z,907.43
2022-08-01T17:53:30.563Z,749.07
2022-08-01T17:56:00.617Z,787.90
2022-08-01T17:58:49.845Z,581.97
2022-08-01T18:01:19.979Z,509.97
2022-08-01T18:03:47.933Z,606.77
2022-08-01T18:06:17.382Z,505.47
2022-08-01T18:08:46.731Z,417.17
2022-08-01T18:11:15.289Z,451.77
2022-08-01T18:13:43.268Z,426.00
2022-08-01T18:16:12.894Z,481.37
2022-08-01T18:18:43.407Z,564.20
2022-08-01T18:21:12.525Z,623.80
2022-08-01T18:23:40.190Z,741.13
2022-08-01T18:26:12.038Z,740.20
2022-08-01T18:28:41.982Z,949.27
2022-08-01T18:31:16.648Z,736.83
2022-08-01T18:33:46.230Z,689.83
2022-08-01T18:36:32.205Z,441.10
2022-08-01T18:39:04.631Z,498.30
2022-08-01T18:41:33.298Z,1531.47
2022-08-01T18:44:05.568Z,1524.67
2022-08-01T18:46:36.127Z,2266.67
2022-08-01T18:49:06.131Z,1478.73
2022-08-01T18:51:33.854Z,1492.40
2022-08-01T18:54:01.488Z,2266.67
2022-08-01T18:56:29.084Z,2266.67
2022-08-01T18:58:56.809Z,294.40
2022-08-01T19:01:24.962Z,1435.77
2022-08-01T19:03:52.613Z,2266.67
2022-08-01T19:06:21.551Z,2266.67
2022-08-01T19:08:49.174Z,281.50
2022-08-01T19:11:16.766Z,1430.73
2022-08-01T19:13:44.377Z,2266.67
2022-08-01T19:16:12.969Z,1490.97
2022-08-01T19:18:41.058Z,1427.97
2022-08-01T19:21:08.766Z,2266.67
2022-08-01T19:23:55.016Z,2266.67
2022-08-01T19:26:25.804Z,2266.67
2022-08-01T19:28:57.117Z,1514.13
2022-08-01T19:31:27.556Z,1525.97
2022-08-01T19:33:55.928Z,2168.07
2022-08-01T19:36:24.591Z,2133.93
2022-08-01T19:38:54.456Z,1595.83
2022-08-01T19:41:23.031Z,2085.33
2022-08-01T19:43:51.680Z,1599.47
2022-08-01T19:46:19.717Z,2266.67
2022-08-01T19:48:53.692Z,1400.10
2022-08-01T19:51:33.223Z,2174.43
2022-08-01T19:54:05.340Z,2266.67
2022-08-01T19:56:39.612Z,2266.67
2022-08-01T19:59:08.850Z,2266.67
2022-08-01T20:01:37.514Z,2266.67
2022-08-01T20:04:05.549Z,2266.67
2022-08-01T20:06:34.787Z,1550.30
2022-08-01T20:09:04.687Z,1661.23
2022-08-01T20:11:32.686Z,2147.27
2022-08-01T20:14:00.988Z,2137.43
2022-08-01T20:16:29.650Z,2266.67
2022-08-01T20:18:57.448Z,2266.67
2022-08-01T20:21:27.104Z,2109.30
2022-08-01T20:24:02.896Z,1394.37
2022-08-01T20:26:32.740Z,2042.27
2022-08-01T20:29:01.600Z,1581.67
2022-08-01T20:31:42.758Z,1650.43
2022-08-01T20:34:15.503Z,1534.10
2022-08-01T20:36:54.531Z,2144.53
2022-08-01T20:39:25.239Z,2266.67
2022-08-01T20:41:59.922Z,1117.90
2022-08-01T20:44:31.394Z,1210.83
2022-08-01T20:47:00.037Z,1438.33
2022-08-01T20:49:28.174Z,1723.47
2022-08-01T20:51:56.509Z,2266.67
2022-08-01T20:54:24.120Z,1776.10
2022-08-01T20:56:58.875Z,1915.57
2022-08-01T20:59:54.966Z,1797.40
2022-08-01T21:02:31.755Z,1736.07
2022-08-01T21:05:05.286Z,1826.33
2022-08-01T21:07:34.351Z,1601.13
2022-08-01T21:10:06.984Z,1651.57
2022-08-01T21:12:43.631Z,2036.03
2022-08-01T21:15:15.205Z,1834.77
2022-08-01T21:17:46.403Z,2146.57
2022-08-01T21:20:15.500Z,2029.70
2022-08-01T21:22:51.540Z,2080.60
2022-08-01T21:25:21.902Z,1866.37
2022-08-01T21:27:52.858Z,2165.00
2022-08-01T21:30:20.720Z,1964.93
2022-08-01T21:32:48.700Z,1769.83
2022-08-01T21:35:18.684Z,1786.70
2022-08-01T21:37:52.675Z,1788.37
2022-08-01T21:40:21.785Z,1647.80
2022-08-01T21:42:51.852Z,1881.23
2022-08-01T21:45:21.018Z,2248.33
2022-08-01T21:47:49.968Z,2192.20
2022-08-01T21:50:17.640Z,1543.97
2022-08-01T21:52:49.667Z,2266.67
2022-08-01T21:55:32.176Z,2249.00
2022-08-01T21:58:14.596Z,2266.67
2022-08-01T22:00:47.352Z,2266.67
2022-08-01T22:03:23.546Z,2204.93
2022-08-01T22:05:53.095Z,2266.67
2022-08-01T22:08:25.661Z,2266.67
2022-08-01T22:10:58.669Z,2266.67
2022-08-01T22:13:27.883Z,2266.67
2022-08-01T22:15:57.487Z,2266.67
2022-08-01T22:18:27.647Z,2266.67
2022-08-01T22:20:56.527Z,2266.67
2022-08-01T22:23:24.358Z,2266.67
2022-08-01T22:25:53.502Z,2266.67
2022-08-01T22:28:21.808Z,2266.67
2022-08-01T22:30:52.676Z,2266.67
2022-08-01T22:33:20.660Z,2266.67
2022-08-01T22:35:50.164Z,2266.67
2022-08-01T22:38:19.198Z,2266.67
2022-08-01T22:40:50.012Z,1755.83
2022-08-01T22:43:26.077Z,2266.67
2022-08-01T22:46:07.396Z,2266.67
2022-08-01T22:48:40.230Z,2266.67
2022-08-01T22:51:11.275Z,2266.67
2022-08-01T22:53:44.033Z,2266.67
2022-08-01T22:56:11.829Z,2266.67
2022-08-01T22:58:41.135Z,2266.67
2022-08-01T23:01:13.052Z,2266.67
2022-08-01T23:03:51.480Z,2266.67
2022-08-01T23:06:23.971Z,2266.67
2022-08-01T23:08:51.884Z,2266.67
2022-08-01T23:11:21.059Z,2266.67
2022-08-01T23:13:48.811Z,2266.67
2022-08-01T23:16:18.759Z,2266.67
2022-08-01T23:18:46.523Z,2266.67
2022-08-01T23:21:14.399Z,2266.67
2022-08-01T23:23:42.516Z,2266.67
2022-08-01T23:26:10.504Z,2266.67
2022-08-01T23:28:40.270Z,2266.67
2022-08-01T23:31:07.998Z,2266.67
2022-08-01T23:33:36.955Z,2266.67
2022-08-01T23:36:05.115Z,2266.67
2022-08-01T23:38:32.749Z,2266.67
2022-08-01T23:41:00.383Z,2266.67
2022-08-01T23:43:28.003Z,2266.67
2022-08-01T23:46:04.671Z,2266.67
2022-08-01T23:48:33.432Z,2266.67
2022-08-01T23:51:02.502Z,2266.67
2022-08-01T23:53:31.089Z,2266.67
2022-08-01T23:56:02.630Z,2266.67
2022-08-01T23:58:31.323Z,2266.67
